Dequincy, Louisiana
Current Conditions -  °F | °C
As of 10:55 PM on Saturday 22 Nov 2014 (Local Time) from K5R8 Reporting Station
Light Rain Light Rain  
Wind Chill: 64°   Ceiling: 400
Heat Index: 64°   Visibility: 10mi
Dew Point: 64°   Wind: 18mph
Humidity: 100%   Direction: 120°ESE
Pressure: 29.77"   Gusts: 25mph
Location:  30.45°N, 93.43°W
Report Text: K5R8 230455Z AUTO 12016G22KT 10SM -RA BKN004 OVC025 18/18 A2977 RMK AO2 LTG DSNT S AND SW P0007 T01800180
Loading
Personal Weather Stations






























Interactive Weather Map New forecast layout! Learn more

10-Day Weather Forecast

Advertisements
Track Severe Weather on mobile